Terminal Aerodrome Forecast
Issued by NWS Green Bay, WI

Home | Current Version | Previous Version | Graphics & Text | Print | Product List | Glossary On
Versions: 1 2 3 4 5 6 7 8 9 10 11 12 13 14 15 16 17
000
FTUS43 KGRB 290520
TAFGRB
TAF
KGRB 290520Z 2906/3006 19010KT 6SM BR BKN040 WS020/25035KT
     FM291200 24012G18KT P6SM BKN040
     FM291800 26013G21KT P6SM BKN050
     FM300000 27008KT P6SM BKN080=

USA.gov is the U.S. government's official web portal to all federal, state and local government web resources and services.